Time;durP1;ratioP1;P1;durP2;ratioP2;P2;SDS_P1;SDS_P2;PMS_P1;PMS_P2;Temp;Humidity;BMP_temperature;BMP_pressure;BME280_temperature;BME280_humidity;BME280_pressure;Samples;Min_cycle;Max_cycle;Signal;HPM_P1;HPM_P2
2022/03/16 00:02:11;;;;;;;18.75;9.65;;;;;;;;;;5091904;28;20028;-43
2022/03/16 00:04:36;;;;;;;17.95;8.38;;;;;;;;;;5091780;28;20114;-42
2022/03/16 00:07:02;;;;;;;20.00;10.25;;;;;;;;;;5091487;28;20456;-44
2022/03/16 00:09:27;;;;;;;26.80;12.60;;;;;;;;;;5091460;28;20032;-43
2022/03/16 00:11:53;;;;;;;25.45;11.85;;;;;;;;;;5091367;28;20150;-43
2022/03/16 00:14:19;;;;;;;21.98;11.65;;;;;;;;;;5091377;28;20074;-44
2022/03/16 00:16:44;;;;;;;35.17;14.52;;;;;;;;;;5091437;28;20027;-43
2022/03/16 00:19:10;;;;;;;55.90;20.40;;;;;;;;;;5091366;28;20110;-43
2022/03/16 00:21:35;;;;;;;102.65;38.20;;;;;;;;;;5091666;28;20039;-42
2022/03/16 00:24:02;;;;;;;32.20;15.18;;;;;;;;;;5091340;28;20035;-45
2022/03/16 00:26:27;;;;;;;20.15;10.45;;;;;;;;;;5046398;28;1271205;-43
2022/03/16 00:28:53;;;;;;;23.27;11.27;;;;;;;;;;5092185;28;20024;-44
2022/03/16 00:31:18;;;;;;;17.02;10.10;;;;;;;;;;5091017;28;20137;-44
2022/03/16 00:33:44;;;;;;;31.55;12.40;;;;;;;;;;5092373;28;20375;-42
2022/03/16 00:36:10;;;;;;;19.95;11.55;;;;;;;;;;5092042;28;20494;-43
2022/03/16 00:38:35;;;;;;;23.50;10.02;;;;;;;;;;5092395;28;20032;-45
2022/03/16 00:41:02;;;;;;;17.80;10.70;;;;;;;;;;5092099;28;20380;-42
2022/03/16 00:43:28;;;;;;;25.23;10.00;;;;;;;;;;5092335;28;20365;-43
2022/03/16 00:45:53;;;;;;;23.38;10.00;;;;;;;;;;5092317;28;20023;-43
2022/03/16 00:48:19;;;;;;;20.88;10.13;;;;;;;;;;5091910;28;20028;-43
2022/03/16 00:50:45;;;;;;;22.40;10.68;;;;;;;;;;5092002;28;20075;-43
2022/03/16 00:53:10;;;;;;;18.40;9.50;;;;;;;;;;5091959;28;20058;-44
2022/03/16 00:55:36;;;;;;;19.85;10.23;;;;;;;;;;5091953;28;20059;-43
2022/03/16 00:58:02;;;;;;;17.55;8.77;;;;;;;;;;5092245;28;20032;-42
2022/03/16 01:00:28;;;;;;;19.58;10.35;;;;;;;;;;5092048;28;20024;-44
2022/03/16 01:02:53;;;;;;;22.30;10.95;;;;;;;;;;5091898;28;20387;-43
2022/03/16 01:05:19;;;;;;;26.70;10.93;;;;;;;;;;5092100;28;20418;-43
2022/03/16 01:07:45;;;;;;;19.33;10.32;;;;;;;;;;5092107;28;20077;-43
2022/03/16 01:10:10;;;;;;;18.67;9.18;;;;;;;;;;5092498;28;20032;-43
2022/03/16 01:12:36;;;;;;;17.65;9.10;;;;;;;;;;5095688;28;20039;-44
2022/03/16 01:15:02;;;;;;;25.13;9.68;;;;;;;;;;5095330;28;20024;-43
2022/03/16 01:17:27;;;;;;;21.15;9.70;;;;;;;;;;5095334;28;20073;-43
2022/03/16 01:19:53;;;;;;;15.45;8.30;;;;;;;;;;5094119;28;20016;-42
2022/03/16 01:22:18;;;;;;;24.77;10.38;;;;;;;;;;5095155;28;20055;-42
2022/03/16 01:24:44;;;;;;;19.17;9.35;;;;;;;;;;5095506;28;20024;-43
2022/03/16 01:27:09;;;;;;;15.30;8.93;;;;;;;;;;5094912;28;20044;-43
2022/03/16 01:29:35;;;;;;;13.38;7.75;;;;;;;;;;5095066;28;20028;-42
2022/03/16 01:32:00;;;;;;;23.83;10.88;;;;;;;;;;5094007;28;20048;-44
2022/03/16 01:34:26;;;;;;;24.90;12.40;;;;;;;;;;5095189;28;20061;-44
2022/03/16 01:36:51;;;;;;;19.20;9.50;;;;;;;;;;5095236;28;20471;-42
2022/03/16 01:39:17;;;;;;;28.33;11.20;;;;;;;;;;5094899;28;20039;-42
2022/03/16 01:41:42;;;;;;;19.50;9.50;;;;;;;;;;5094901;28;20031;-43
2022/03/16 01:44:09;;;;;;;17.23;9.13;;;;;;;;;;5094753;28;20020;-42
2022/03/16 01:46:35;;;;;;;18.95;10.05;;;;;;;;;;5094719;28;20496;-42
2022/03/16 01:49:01;;;;;;;18.08;9.93;;;;;;;;;;5094582;28;20121;-41
2022/03/16 01:51:27;;;;;;;18.90;10.02;;;;;;;;;;5094981;28;20058;-41
2022/03/16 01:53:52;;;;;;;26.85;11.57;;;;;;;;;;5094843;28;20097;-42
2022/03/16 01:56:18;;;;;;;23.55;9.90;;;;;;;;;;5094735;28;20074;-41
2022/03/16 01:58:44;;;;;;;18.88;9.38;;;;;;;;;;5094531;28;20126;-41
2022/03/16 02:01:10;;;;;;;17.23;9.70;;;;;;;;;;5093316;28;20027;-45
2022/03/16 02:03:35;;;;;;;26.75;11.10;;;;;;;;;;5094428;28;20032;-42
2022/03/16 02:06:03;;;;;;;29.65;13.07;;;;;;;;;;5094614;28;20081;-42
2022/03/16 02:08:36;;;;;;;24.05;13.10;;;;;;;;;;5094567;28;20028;-44
2022/03/16 02:11:02;;;;;;;24.88;13.40;;;;;;;;;;5094436;28;20039;-44
2022/03/16 02:13:28;;;;;;;26.92;12.60;;;;;;;;;;5094538;28;20127;-43
2022/03/16 02:15:54;;;;;;;32.25;12.55;;;;;;;;;;5094272;28;20146;-42
2022/03/16 02:18:19;;;;;;;25.05;12.57;;;;;;;;;;5094396;28;20028;-43
2022/03/16 02:20:50;;;;;;;20.55;11.48;;;;;;;;;;5094096;28;20025;-43
2022/03/16 02:23:16;;;;;;;27.70;12.13;;;;;;;;;;5093259;28;20054;-43
2022/03/16 02:25:53;;;;;;;29.42;13.25;;;;;;;;;;5094244;28;20468;-47
2022/03/16 02:28:19;;;;;;;27.02;12.75;;;;;;;;;;5093739;28;20051;-43
2022/03/16 02:30:45;;;;;;;24.63;11.85;;;;;;;;;;5093814;28;20031;-43
2022/03/16 02:33:11;;;;;;;21.40;12.65;;;;;;;;;;5094192;28;20068;-45
2022/03/16 02:35:37;;;;;;;23.67;12.10;;;;;;;;;;5094172;28;20028;-43
2022/03/16 02:38:03;;;;;;;21.77;12.70;;;;;;;;;;5094380;28;20042;-43
2022/03/16 02:40:29;;;;;;;23.20;11.98;;;;;;;;;;5093611;28;20020;-43
2022/03/16 02:42:55;;;;;;;22.23;11.38;;;;;;;;;;5093681;28;20020;-42
2022/03/16 02:45:21;;;;;;;22.02;12.48;;;;;;;;;;5093826;28;20032;-45
2022/03/16 02:47:47;;;;;;;25.38;11.77;;;;;;;;;;5093867;28;20024;-41
2022/03/16 02:50:14;;;;;;;21.17;11.43;;;;;;;;;;5093432;28;20059;-44
2022/03/16 02:52:40;;;;;;;18.27;11.13;;;;;;;;;;5093394;28;20016;-45
2022/03/16 02:55:07;;;;;;;22.60;11.13;;;;;;;;;;5093480;28;20027;-43
2022/03/16 02:57:33;;;;;;;23.30;11.27;;;;;;;;;;5093607;28;20073;-46
2022/03/16 02:59:58;;;;;;;26.30;11.88;;;;;;;;;;5093638;28;20028;-44
2022/03/16 03:02:24;;;;;;;21.67;10.80;;;;;;;;;;5093250;28;20027;-44
2022/03/16 03:04:49;;;;;;;23.55;10.57;;;;;;;;;;5093264;28;20106;-45
2022/03/16 03:07:15;;;;;;;17.63;10.35;;;;;;;;;;5091971;28;20024;-44
2022/03/16 03:09:40;;;;;;;19.77;10.02;;;;;;;;;;5093131;28;20036;-45
2022/03/16 03:12:07;;;;;;;21.38;9.82;;;;;;;;;;5091844;28;20479;-47
2022/03/16 03:14:32;;;;;;;13.80;9.43;;;;;;;;;;5092154;28;20033;-46
2022/03/16 03:16:58;;;;;;;16.98;9.45;;;;;;;;;;5093063;28;20491;-44
2022/03/16 03:19:23;;;;;;;17.40;10.02;;;;;;;;;;5093059;28;20035;-43
2022/03/16 03:21:50;;;;;;;27.63;10.52;;;;;;;;;;5092992;28;20028;-43
2022/03/16 03:24:15;;;;;;;22.50;10.73;;;;;;;;;;5092836;28;20024;-45
2022/03/16 03:26:41;;;;;;;23.67;10.00;;;;;;;;;;5092724;28;20166;-45
2022/03/16 03:29:07;;;;;;;23.98;10.63;;;;;;;;;;5092811;28;20028;-46
2022/03/16 03:31:33;;;;;;;23.05;9.82;;;;;;;;;;5092844;28;20480;-44
2022/03/16 03:33:58;;;;;;;19.52;11.65;;;;;;;;;;5092568;28;20024;-47
2022/03/16 03:36:24;;;;;;;12.52;8.57;;;;;;;;;;5092907;28;20031;-45
2022/03/16 03:38:49;;;;;;;14.40;8.75;;;;;;;;;;5092950;28;20077;-46
2022/03/16 03:41:15;;;;;;;17.98;8.90;;;;;;;;;;5092737;28;20420;-48
2022/03/16 03:43:40;;;;;;;19.77;8.63;;;;;;;;;;5092635;28;20380;-45
2022/03/16 03:46:06;;;;;;;20.60;8.48;;;;;;;;;;5092832;28;20024;-45
2022/03/16 03:48:31;;;;;;;12.55;7.93;;;;;;;;;;5092534;28;20034;-43
2022/03/16 03:50:57;;;;;;;16.80;7.82;;;;;;;;;;5092495;28;20028;-44
2022/03/16 03:53:22;;;;;;;14.63;8.07;;;;;;;;;;5092507;28;20024;-47
2022/03/16 03:55:48;;;;;;;15.50;7.85;;;;;;;;;;5092473;28;20036;-43
2022/03/16 03:58:14;;;;;;;16.88;8.13;;;;;;;;;;5092362;28;20027;-45
2022/03/16 04:00:39;;;;;;;15.98;8.75;;;;;;;;;;5092447;28;20099;-45
2022/03/16 04:03:05;;;;;;;10.50;7.90;;;;;;;;;;5092355;28;20024;-43
2022/03/16 04:05:30;;;;;;;16.70;8.55;;;;;;;;;;5092629;28;20099;-46
2022/03/16 04:07:55;;;;;;;13.02;7.93;;;;;;;;;;5092444;28;20028;-43
2022/03/16 04:10:21;;;;;;;9.63;6.95;;;;;;;;;;5092551;28;20028;-44
2022/03/16 04:12:47;;;;;;;14.40;7.05;;;;;;;;;;5092366;28;20032;-45
2022/03/16 04:15:12;;;;;;;12.90;7.55;;;;;;;;;;5092385;28;20016;-47
2022/03/16 04:17:38;;;;;;;12.38;6.72;;;;;;;;;;5092312;28;20024;-44
2022/03/16 04:20:05;;;;;;;20.30;7.43;;;;;;;;;;5092482;28;20024;-44
2022/03/16 04:22:31;;;;;;;9.23;6.65;;;;;;;;;;5090937;28;20029;-43
2022/03/16 04:24:57;;;;;;;11.02;6.72;;;;;;;;;;5092274;28;20051;-44
2022/03/16 04:27:23;;;;;;;11.32;7.00;;;;;;;;;;5092050;28;20115;-45
2022/03/16 04:29:48;;;;;;;22.13;7.05;;;;;;;;;;5092161;28;20028;-44
2022/03/16 04:32:14;;;;;;;7.68;6.47;;;;;;;;;;5092164;28;20036;-45
2022/03/16 04:34:39;;;;;;;9.82;6.20;;;;;;;;;;5092238;28;20024;-47
2022/03/16 04:37:05;;;;;;;10.10;6.53;;;;;;;;;;5092407;28;20027;-43
2022/03/16 04:39:31;;;;;;;10.02;6.43;;;;;;;;;;5092152;28;20495;-48
2022/03/16 04:41:56;;;;;;;10.00;6.15;;;;;;;;;;5092064;28;20467;-43
2022/03/16 04:44:22;;;;;;;12.05;5.97;;;;;;;;;;5092057;28;20024;-44
2022/03/16 04:46:47;;;;;;;10.10;6.15;;;;;;;;;;5095593;28;20053;-43
2022/03/16 04:49:13;;;;;;;8.07;6.05;;;;;;;;;;5095839;28;20114;-45
2022/03/16 04:51:40;;;;;;;16.15;6.25;;;;;;;;;;5095928;28;20289;-44
2022/03/16 04:54:08;;;;;;;19.48;7.05;;;;;;;;;;5096273;28;20020;-47
2022/03/16 04:56:35;;;;;;;15.15;7.40;;;;;;;;;;5095749;28;20496;-44
2022/03/16 04:59:01;;;;;;;12.18;5.93;;;;;;;;;;5095962;28;20028;-47
2022/03/16 05:01:27;;;;;;;21.00;6.80;;;;;;;;;;5095906;28;20028;-44
2022/03/16 05:03:52;;;;;;;10.07;5.68;;;;;;;;;;5095871;28;20022;-42
2022/03/16 05:06:18;;;;;;;9.85;5.80;;;;;;;;;;5095461;28;20092;-43
2022/03/16 05:08:45;;;;;;;9.63;6.07;;;;;;;;;;5095687;28;20022;-45
2022/03/16 05:11:11;;;;;;;10.35;6.53;;;;;;;;;;5095343;28;20035;-44
2022/03/16 05:13:37;;;;;;;9.68;6.20;;;;;;;;;;5095451;28;20375;-43
2022/03/16 05:16:03;;;;;;;10.65;6.38;;;;;;;;;;5095500;28;20475;-42
2022/03/16 05:18:29;;;;;;;8.60;6.68;;;;;;;;;;5095599;28;20353;-43
2022/03/16 05:20:55;;;;;;;10.77;6.00;;;;;;;;;;5095601;28;20380;-48
2022/03/16 05:23:20;;;;;;;8.55;6.38;;;;;;;;;;5095647;28;20016;-42
2022/03/16 05:25:46;;;;;;;9.63;6.03;;;;;;;;;;5095573;28;20468;-45
2022/03/16 05:28:12;;;;;;;11.65;6.32;;;;;;;;;;5095116;28;20618;-46
2022/03/16 05:30:37;;;;;;;13.15;7.28;;;;;;;;;;5095217;28;20024;-48
2022/03/16 05:33:04;;;;;;;11.73;6.55;;;;;;;;;;5095221;28;20024;-43
2022/03/16 05:35:30;;;;;;;11.63;6.22;;;;;;;;;;5095177;28;20392;-46
2022/03/16 05:37:56;;;;;;;8.98;6.60;;;;;;;;;;5095549;28;20443;-47
2022/03/16 05:40:22;;;;;;;11.95;7.03;;;;;;;;;;5095103;28;20050;-48
2022/03/16 05:42:47;;;;;;;11.43;6.75;;;;;;;;;;5094981;28;20057;-48
2022/03/16 05:45:13;;;;;;;8.52;6.15;;;;;;;;;;5094975;28;20027;-44
2022/03/16 05:47:39;;;;;;;11.43;6.53;;;;;;;;;;5094936;28;20642;-46
2022/03/16 05:50:06;;;;;;;14.13;6.38;;;;;;;;;;5094737;28;20058;-44
2022/03/16 05:52:32;;;;;;;11.00;7.32;;;;;;;;;;5094739;28;20032;-43
2022/03/16 05:54:59;;;;;;;9.70;5.88;;;;;;;;;;5094702;28;20039;-43
2022/03/16 05:57:26;;;;;;;12.27;7.07;;;;;;;;;;5094492;28;20052;-45
2022/03/16 05:59:52;;;;;;;13.77;6.18;;;;;;;;;;5094594;28;20095;-43
2022/03/16 06:02:18;;;;;;;15.40;6.40;;;;;;;;;;5094515;28;20491;-41
2022/03/16 06:04:44;;;;;;;10.57;6.28;;;;;;;;;;5094547;28;20055;-47
2022/03/16 06:07:10;;;;;;;16.05;7.18;;;;;;;;;;5094515;28;20031;-43
2022/03/16 06:09:36;;;;;;;13.00;7.32;;;;;;;;;;5094280;28;20024;-49
2022/03/16 06:12:04;;;;;;;12.38;6.88;;;;;;;;;;5094267;28;20099;-45
2022/03/16 06:14:30;;;;;;;13.50;7.05;;;;;;;;;;5094307;28;20504;-47
2022/03/16 06:16:56;;;;;;;13.05;7.22;;;;;;;;;;5094368;28;20020;-47
2022/03/16 06:19:22;;;;;;;11.20;7.65;;;;;;;;;;5093171;28;20383;-43
2022/03/16 06:21:48;;;;;;;13.00;7.45;;;;;;;;;;5093918;28;20016;-47
2022/03/16 06:24:14;;;;;;;14.52;7.40;;;;;;;;;;5094022;28;20031;-50
2022/03/16 06:26:40;;;;;;;12.15;7.50;;;;;;;;;;5093823;28;20479;-47
2022/03/16 06:29:06;;;;;;;11.27;7.03;;;;;;;;;;5094275;28;20056;-43
2022/03/16 06:31:32;;;;;;;11.65;7.60;;;;;;;;;;5093736;28;20566;-47
2022/03/16 06:33:57;;;;;;;11.85;7.40;;;;;;;;;;5093838;28;20026;-46
2022/03/16 06:36:23;;;;;;;13.45;8.18;;;;;;;;;;5093783;28;20016;-44
2022/03/16 06:38:48;;;;;;;10.80;7.50;;;;;;;;;;5092810;28;20024;-43
2022/03/16 06:41:14;;;;;;;11.48;6.32;;;;;;;;;;5092473;28;20025;-45
2022/03/16 06:43:40;;;;;;;9.80;7.30;;;;;;;;;;5093537;28;20028;-43
2022/03/16 06:46:06;;;;;;;13.40;7.47;;;;;;;;;;5093603;28;20487;-42
2022/03/16 06:48:32;;;;;;;13.73;7.95;;;;;;;;;;5092178;28;20020;-44
2022/03/16 06:50:58;;;;;;;11.75;7.18;;;;;;;;;;5093386;28;20028;-46
2022/03/16 06:53:25;;;;;;;12.70;8.07;;;;;;;;;;5093429;28;20493;-45
2022/03/16 06:55:50;;;;;;;11.35;7.65;;;;;;;;;;5093402;28;20020;-44
2022/03/16 06:58:16;;;;;;;13.55;7.30;;;;;;;;;;5093646;28;20031;-43
2022/03/16 07:00:42;;;;;;;9.45;7.55;;;;;;;;;;5091994;28;20536;-43
2022/03/16 07:03:07;;;;;;;12.85;8.10;;;;;;;;;;5093481;28;20024;-46
2022/03/16 07:05:38;;;;;;;12.82;7.80;;;;;;;;;;5093138;28;20062;-44
2022/03/16 07:08:09;;;;;;;11.50;7.88;;;;;;;;;;5092628;28;20016;-43
2022/03/16 07:10:36;;;;;;;16.00;8.23;;;;;;;;;;5093383;28;20093;-43
2022/03/16 07:13:02;;;;;;;11.73;7.80;;;;;;;;;;5093100;28;20476;-43
2022/03/16 07:15:30;;;;;;;10.75;8.02;;;;;;;;;;5093336;28;20491;-42
2022/03/16 07:17:56;;;;;;;12.40;8.50;;;;;;;;;;5093223;28;20024;-43
2022/03/16 07:20:21;;;;;;;14.65;8.57;;;;;;;;;;5093172;28;20531;-43
2022/03/16 07:23:01;;;;;;;15.68;9.25;;;;;;;;;;5092848;28;20483;-42
2022/03/16 07:25:27;;;;;;;15.27;8.38;;;;;;;;;;5093171;28;20273;-40
2022/03/16 07:27:53;;;;;;;17.33;9.40;;;;;;;;;;5092679;28;20043;-42
2022/03/16 07:30:18;;;;;;;13.88;9.07;;;;;;;;;;5093006;28;20085;-43
2022/03/16 07:32:44;;;;;;;14.98;9.57;;;;;;;;;;5092644;28;20080;-43
2022/03/16 07:35:09;;;;;;;14.45;9.80;;;;;;;;;;5092711;28;20032;-43
2022/03/16 07:37:36;;;;;;;17.15;10.38;;;;;;;;;;5091447;28;20042;-42
2022/03/16 07:40:03;;;;;;;15.10;9.70;;;;;;;;;;5092668;28;20468;-45
2022/03/16 07:42:32;;;;;;;14.13;9.55;;;;;;;;;;5092921;28;20024;-43
2022/03/16 07:44:58;;;;;;;17.65;10.70;;;;;;;;;;5092529;28;20024;-44
2022/03/16 07:47:25;;;;;;;17.38;10.75;;;;;;;;;;5092553;28;20020;-44
2022/03/16 07:49:56;;;;;;;20.25;11.38;;;;;;;;;;5092393;28;20024;-40
2022/03/16 07:52:23;;;;;;;15.02;10.43;;;;;;;;;;5092553;28;20519;-42
2022/03/16 07:54:48;;;;;;;17.20;9.90;;;;;;;;;;5092526;28;20491;-43
2022/03/16 07:57:16;;;;;;;15.32;10.23;;;;;;;;;;5092475;28;20028;-43
2022/03/16 07:59:42;;;;;;;18.77;8.90;;;;;;;;;;5092456;28;20020;-41
2022/03/16 08:02:08;;;;;;;14.85;10.23;;;;;;;;;;5092658;28;20067;-44
2022/03/16 08:04:33;;;;;;;18.00;8.43;;;;;;;;;;5092378;28;20020;-43
2022/03/16 08:06:59;;;;;;;16.08;10.23;;;;;;;;;;5092692;28;20020;-43
2022/03/16 08:09:25;;;;;;;17.55;10.88;;;;;;;;;;5092287;28;20020;-43
2022/03/16 08:11:50;;;;;;;20.38;12.35;;;;;;;;;;5092392;28;20024;-41
2022/03/16 08:14:16;;;;;;;19.80;13.15;;;;;;;;;;5092309;28;20054;-41
2022/03/16 08:16:41;;;;;;;13.85;9.65;;;;;;;;;;5092633;28;20028;-40
2022/03/16 08:19:07;;;;;;;12.55;9.45;;;;;;;;;;5092317;28;20028;-42
2022/03/16 08:21:33;;;;;;;15.45;9.77;;;;;;;;;;5095916;28;20036;-44
2022/03/16 08:23:58;;;;;;;13.10;9.10;;;;;;;;;;5096363;28;20070;-46
2022/03/16 08:26:24;;;;;;;14.73;8.25;;;;;;;;;;5096070;28;20020;-41
2022/03/16 08:28:50;;;;;;;9.48;7.45;;;;;;;;;;5096298;28;20031;-42
2022/03/16 08:31:17;;;;;;;10.45;7.88;;;;;;;;;;5094784;28;20217;-42
2022/03/16 08:33:43;;;;;;;14.82;8.35;;;;;;;;;;5096489;28;20141;-41
2022/03/16 08:36:09;;;;;;;12.38;8.10;;;;;;;;;;5096089;28;20034;-42
2022/03/16 08:38:38;;;;;;;14.70;8.32;;;;;;;;;;5094711;28;20032;-43
2022/03/16 08:41:06;;;;;;;12.38;8.68;;;;;;;;;;5096340;28;20024;-45
2022/03/16 08:43:33;;;;;;;13.30;8.20;;;;;;;;;;5096471;28;20057;-43
2022/03/16 08:45:59;;;;;;;16.10;8.77;;;;;;;;;;5096184;28;20031;-45
2022/03/16 08:48:25;;;;;;;14.02;9.07;;;;;;;;;;5095854;28;20532;-43
2022/03/16 08:50:51;;;;;;;13.52;8.85;;;;;;;;;;5095798;28;20028;-42
2022/03/16 08:53:16;;;;;;;20.52;8.85;;;;;;;;;;5095758;28;20093;-40
2022/03/16 08:55:42;;;;;;;14.82;9.07;;;;;;;;;;5094473;28;20016;-42
2022/03/16 08:58:08;;;;;;;14.40;8.90;;;;;;;;;;5095987;28;20028;-42
2022/03/16 09:00:34;;;;;;;13.23;8.75;;;;;;;;;;5095851;28;20024;-44
2022/03/16 09:02:59;;;;;;;12.20;9.10;;;;;;;;;;5095541;28;20062;-41
2022/03/16 09:05:26;;;;;;;13.40;9.27;;;;;;;;;;5094894;28;20056;-41
2022/03/16 09:07:51;;;;;;;19.30;10.25;;;;;;;;;;5095060;28;20459;-42
2022/03/16 09:10:17;;;;;;;13.70;10.38;;;;;;;;;;5094121;28;20032;-43
2022/03/16 09:12:42;;;;;;;11.15;9.13;;;;;;;;;;5332890;22;20191;-39
2022/03/16 09:15:08;;;;;;;16.85;9.63;;;;;;;;;;5053254;28;20251;-39
2022/03/16 09:17:34;;;;;;;13.30;9.48;;;;;;;;;;5053581;28;20025;-40
2022/03/16 09:20:04;;;;;;;15.23;9.45;;;;;;;;;;5053430;28;20357;-37
2022/03/16 09:22:30;;;;;;;14.73;10.18;;;;;;;;;;5054359;28;20383;-37
2022/03/16 09:24:58;;;;;;;12.85;8.95;;;;;;;;;;5054026;28;20036;-39
2022/03/16 09:27:25;;;;;;;12.65;8.90;;;;;;;;;;5055133;28;20403;-40
2022/03/16 09:29:53;;;;;;;11.27;8.40;;;;;;;;;;5054668;28;20108;-40
2022/03/16 09:32:18;;;;;;;13.50;9.10;;;;;;;;;;5054556;28;20060;-39
2022/03/16 09:34:44;;;;;;;13.95;9.30;;;;;;;;;;5054904;28;20076;-41
2022/03/16 09:37:10;;;;;;;15.48;8.93;;;;;;;;;;5054729;28;20032;-40
2022/03/16 09:39:36;;;;;;;13.50;8.85;;;;;;;;;;5054737;28;20025;-38
2022/03/16 09:42:03;;;;;;;13.07;9.52;;;;;;;;;;5054808;28;20032;-40
2022/03/16 09:44:30;;;;;;;12.63;8.52;;;;;;;;;;5053549;28;20032;-40
2022/03/16 09:46:57;;;;;;;12.13;8.35;;;;;;;;;;5054772;28;20112;-38
2022/03/16 09:49:29;;;;;;;13.82;8.27;;;;;;;;;;5054448;28;20060;-41
2022/03/16 09:51:55;;;;;;;18.83;8.93;;;;;;;;;;5054706;28;20041;-44
2022/03/16 09:54:22;;;;;;;14.60;8.90;;;;;;;;;;5054354;28;20025;-39
2022/03/16 09:56:50;;;;;;;17.60;9.80;;;;;;;;;;5054333;28;20068;-39
2022/03/16 09:59:16;;;;;;;16.80;9.35;;;;;;;;;;5054346;28;20029;-40
2022/03/16 10:01:44;;;;;;;20.35;10.10;;;;;;;;;;5054303;28;20021;-43
2022/03/16 10:04:11;;;;;;;14.88;9.95;;;;;;;;;;5054037;28;20021;-41
2022/03/16 10:06:38;;;;;;;13.85;10.00;;;;;;;;;;5054466;28;20036;-40
2022/03/16 10:15:12;;;;;;;12.10;9.02;;;;;;;;;;5054317;28;20556;-40
2022/03/16 10:17:44;;;;;;;16.02;9.13;;;;;;;;;;5054082;28;20017;-42
2022/03/16 10:20:33;;;;;;;15.95;8.82;;;;;;;;;;5053932;28;20036;-42
2022/03/16 10:23:05;;;;;;;16.08;9.68;;;;;;;;;;5053809;28;20501;-39
2022/03/16 10:25:33;;;;;;;21.27;10.38;;;;;;;;;;5053833;28;20033;-39
2022/03/16 10:28:13;;;;;;;15.60;9.55;;;;;;;;;;5053611;28;20071;-41
2022/03/16 10:30:50;;;;;;;15.30;10.07;;;;;;;;;;5053719;28;20515;-39
2022/03/16 10:33:16;;;;;;;20.90;9.95;;;;;;;;;;5053272;28;20049;-40
2022/03/16 10:36:15;;;;;;;15.15;10.13;;;;;;;;;;5053573;28;20021;-39
2022/03/16 10:38:58;;;;;;;16.20;9.63;;;;;;;;;;5019264;28;20519;-39
2022/03/16 10:47:00;;;;;;;26.98;11.50;;;;;;;;;;5053237;28;20170;-39
2022/03/16 10:49:30;;;;;;;19.25;9.82;;;;;;;;;;5052937;28;20021;-41
2022/03/16 10:52:09;;;;;;;17.37;8.47;;;;;;;;;;5053314;28;20078;-39
2022/03/16 10:54:35;;;;;;;13.25;7.80;;;;;;;;;;5053620;28;20344;-39
2022/03/16 10:57:08;;;;;;;13.65;7.55;;;;;;;;;;5053560;28;20028;-43
2022/03/16 10:59:34;;;;;;;15.40;7.32;;;;;;;;;;5053390;28;20025;-38
2022/03/16 11:02:12;;;;;;;20.27;7.60;;;;;;;;;;5053151;28;20024;-42
2022/03/16 11:04:39;;;;;;;13.30;8.50;;;;;;;;;;5053403;28;20143;-38
2022/03/16 11:07:06;;;;;;;15.25;7.90;;;;;;;;;;5053078;28;20044;-40
2022/03/16 11:09:32;;;;;;;13.88;8.55;;;;;;;;;;5052839;28;20066;-40
2022/03/16 11:14:44;;;;;;;10.48;7.85;;;;;;;;;;5052896;28;20099;-38
2022/03/16 11:17:10;;;;;;;16.52;8.48;;;;;;;;;;5053232;28;20029;-38
2022/03/16 11:19:36;;;;;;;14.75;7.68;;;;;;;;;;5052963;28;20029;-38
2022/03/16 11:22:13;;;;;;;14.48;7.68;;;;;;;;;;5052810;28;20522;-38
2022/03/16 11:24:49;;;;;;;13.18;8.32;;;;;;;;;;5052992;28;20033;-39
2022/03/16 11:27:49;;;;;;;13.85;8.35;;;;;;;;;;5053288;28;20078;-39
2022/03/16 11:30:17;;;;;;;15.27;8.57;;;;;;;;;;5052880;28;20405;-41
2022/03/16 11:32:46;;;;;;;18.42;9.15;;;;;;;;;;5052917;28;20159;-39
2022/03/16 11:35:16;;;;;;;13.75;9.75;;;;;;;;;;5052520;28;20095;-39
2022/03/16 11:37:44;;;;;;;;;;;;;;;;;;5053173;28;20060;-38
2022/03/16 11:40:10;;;;;;;16.05;9.50;;;;;;;;;;5052895;28;19908;-38
2022/03/16 11:42:37;;;;;;;15.73;10.48;;;;;;;;;;5052475;28;20473;-39
2022/03/16 11:45:30;;;;;;;43.10;13.10;;;;;;;;;;5052547;28;20067;-41
2022/03/16 11:47:56;;;;;;;18.60;10.73;;;;;;;;;;5052694;28;20036;-39
2022/03/16 11:50:21;;;;;;;20.05;10.07;;;;;;;;;;5052317;28;20399;-41
2022/03/16 11:53:03;;;;;;;14.20;10.10;;;;;;;;;;5051114;28;20075;-40
2022/03/16 11:55:40;;;;;;;18.92;10.57;;;;;;;;;;5051279;28;20096;-38
2022/03/16 11:58:16;;;;;;;22.80;11.07;;;;;;;;;;5050908;28;20067;-38
2022/03/16 12:00:42;;;;;;;17.83;10.77;;;;;;;;;;5052419;28;20021;-42
2022/03/16 12:03:08;;;;;;;15.85;10.27;;;;;;;;;;5052261;28;20021;-44
2022/03/16 12:05:54;;;;;;;18.77;11.32;;;;;;;;;;5052450;28;20021;-38
2022/03/16 12:08:22;;;;;;;16.95;10.48;;;;;;;;;;5052399;28;20025;-40
2022/03/16 12:12:50;;;;;;;18.85;11.25;;;;;;;;;;5052388;28;20427;-38
2022/03/16 12:13:42;;;;;;;16.38;10.20;;;;;;;;;;5052006;28;20131;-41
2022/03/16 12:16:08;;;;;;;19.27;10.35;;;;;;;;;;5052228;28;20102;-43
2022/03/16 12:18:39;;;;;;;21.10;11.18;;;;;;;;;;5052058;28;20029;-41
2022/03/16 12:21:07;;;;;;;14.20;9.98;;;;;;;;;;5052066;28;20469;-39
2022/03/16 12:23:55;;;;;;;15.77;10.38;;;;;;;;;;5052086;28;20029;-39
2022/03/16 12:26:25;;;;;;;17.92;10.40;;;;;;;;;;5052116;28;20520;-38
2022/03/16 12:29:01;;;;;;;19.88;11.43;;;;;;;;;;5052160;28;20029;-38
2022/03/16 12:31:26;;;;;;;16.08;10.00;;;;;;;;;;5052011;28;20468;-38
2022/03/16 12:33:56;;;;;;;14.77;9.63;;;;;;;;;;5052181;28;20035;-41
2022/03/16 12:36:24;;;;;;;17.75;11.20;;;;;;;;;;5052329;28;20112;-42
2022/03/16 12:38:56;;;;;;;18.58;10.60;;;;;;;;;;5051102;28;20025;-47
2022/03/16 12:44:12;;;;;;;16.75;10.05;;;;;;;;;;5052050;28;20547;-47
2022/03/16 12:47:03;;;;;;;20.58;11.15;;;;;;;;;;5051767;28;20033;-40
2022/03/16 12:49:30;;;;;;;18.95;11.70;;;;;;;;;;5051631;28;20036;-42
2022/03/16 12:52:00;;;;;;;23.33;11.40;;;;;;;;;;5051234;28;20108;-47
2022/03/16 12:54:36;;;;;;;16.15;9.85;;;;;;;;;;5051880;28;20427;-44
2022/03/16 12:57:07;;;;;;;16.52;9.73;;;;;;;;;;5051211;28;20071;-46
2022/03/16 12:59:35;;;;;;;14.68;9.45;;;;;;;;;;5045863;28;20383;-48
2022/03/16 13:02:04;;;;;;;16.17;9.90;;;;;;;;;;5049341;28;20025;-48
2022/03/16 13:04:31;;;;;;;15.98;10.75;;;;;;;;;;5050570;28;20380;-41
2022/03/16 13:06:58;;;;;;;18.55;10.60;;;;;;;;;;5052374;28;20043;-46
2022/03/16 13:09:31;;;;;;;17.90;11.13;;;;;;;;;;5054053;28;20046;-44
2022/03/16 13:12:10;;;;;;;24.13;12.15;;;;;;;;;;5053697;28;20037;-47
2022/03/16 13:14:43;;;;;;;21.83;11.80;;;;;;;;;;5053447;28;20076;-48
2022/03/16 13:17:09;;;;;;;18.58;9.23;;;;;;;;;;5053445;28;20036;-45
2022/03/16 13:19:36;;;;;;;19.13;9.60;;;;;;;;;;5053490;28;20028;-47
2022/03/16 13:22:07;;;;;;;13.75;8.60;;;;;;;;;;5053630;28;20033;-45
2022/03/16 13:24:36;;;;;;;;;;;;;;;;;;5053833;28;20031;-43
2022/03/16 13:27:04;;;;;;;17.35;10.43;;;;;;;;;;5052737;28;19917;-46
2022/03/16 13:29:33;;;;;;;16.65;9.90;;;;;;;;;;5053205;28;20086;-40
2022/03/16 13:32:00;;;;;;;15.45;10.00;;;;;;;;;;5053305;28;20071;-46
2022/03/16 13:34:27;;;;;;;18.75;10.70;;;;;;;;;;5052950;28;20028;-43
2022/03/16 13:36:54;;;;;;;19.90;11.18;;;;;;;;;;5052587;28;20033;-43
2022/03/16 13:39:22;;;;;;;10.98;7.82;;;;;;;;;;5053015;28;20119;-47
2022/03/16 13:42:05;;;;;;;10.52;7.65;;;;;;;;;;5053303;28;20421;-46
2022/03/16 13:44:34;;;;;;;11.88;7.40;;;;;;;;;;5052963;28;20033;-44
2022/03/16 13:47:00;;;;;;;11.93;7.70;;;;;;;;;;5053148;28;20033;-46
2022/03/16 13:49:39;;;;;;;10.93;7.50;;;;;;;;;;5052793;28;20124;-47
2022/03/16 13:52:07;;;;;;;11.98;8.18;;;;;;;;;;5053123;28;20035;-47
2022/03/16 13:54:33;;;;;;;13.25;8.70;;;;;;;;;;5053034;28;20423;-47
2022/03/16 13:57:36;;;;;;;14.75;9.35;;;;;;;;;;5053152;28;20040;-47
2022/03/16 14:00:07;;;;;;;15.00;9.82;;;;;;;;;;5046505;28;20044;-44
2022/03/16 14:02:32;;;;;;;14.68;9.50;;;;;;;;;;5052853;28;20044;-47
2022/03/16 14:05:03;;;;;;;15.20;9.90;;;;;;;;;;5052844;28;20025;-44
2022/03/16 14:07:33;;;;;;;11.90;9.13;;;;;;;;;;5052666;28;20116;-43
2022/03/16 14:10:00;;;;;;;13.90;9.10;;;;;;;;;;5052762;28;20079;-47
2022/03/16 14:12:31;;;;;;;12.93;9.25;;;;;;;;;;5052734;28;20029;-46
2022/03/16 14:15:06;;;;;;;16.35;9.15;;;;;;;;;;5052615;28;20914;-44
2022/03/16 14:17:41;;;;;;;15.55;10.52;;;;;;;;;;5051629;28;20457;-45
2022/03/16 14:20:13;;;;;;;19.05;11.80;;;;;;;;;;5052930;28;20037;-47
2022/03/16 14:22:43;;;;;;;16.85;11.15;;;;;;;;;;5052582;28;20419;-42
2022/03/16 14:25:37;;;;;;;20.55;12.40;;;;;;;;;;5052423;28;20032;-45
2022/03/16 14:28:04;;;;;;;21.85;13.15;;;;;;;;;;5049946;28;20033;-42
2022/03/16 14:30:33;;;;;;;21.65;14.13;;;;;;;;;;5052340;28;20035;-44
2022/03/16 14:33:05;;;;;;;19.33;13.23;;;;;;;;;;5052190;28;20090;-44
2022/03/16 14:35:33;;;;;;;18.48;13.38;;;;;;;;;;5052540;28;20056;-44
2022/03/16 14:38:04;;;;;;;20.08;14.30;;;;;;;;;;5052072;28;20029;-43
2022/03/16 14:40:41;;;;;;;24.27;15.38;;;;;;;;;;5052506;28;20076;-47
2022/03/16 14:43:08;;;;;;;21.75;14.73;;;;;;;;;;5052289;28;20036;-45
2022/03/16 14:45:34;;;;;;;24.77;15.10;;;;;;;;;;5051990;28;20021;-44
2022/03/16 14:48:02;;;;;;;22.13;15.05;;;;;;;;;;5051993;28;20057;-45